Time;durP1;ratioP1;P1;durP2;ratioP2;P2;SDS_P1;SDS_P2;PMS_P1;PMS_P2;Temp;Humidity;BMP_temperature;BMP_pressure;BME280_temperature;BME280_humidity;BME280_pressure;Samples;Min_cycle;Max_cycle;Signal;HPM_P1;HPM_P2
2022/10/03 00:01:47;;;;;;;25.48;3.97;;;;;;;;;;5029455;28;20631;-70
2022/10/03 00:04:41;;;;;;;31.55;4.75;;;;;;;;;;5049191;28;20170;-70
2022/10/03 00:07:52;;;;;;;23.77;4.40;;;;;;;;;;5028992;28;20194;-70
2022/10/03 00:10:24;;;;;;;21.80;4.38;;;;;;;;;;5032842;28;20637;-70
2022/10/03 00:13:06;;;;;;;19.98;4.60;;;;;;;;;;5041681;28;20269;-70
2022/10/03 00:15:45;;;;;;;33.90;5.65;;;;;;;;;;5041582;28;20207;-70
2022/10/03 00:18:28;;;;;;;19.50;4.40;;;;;;;;;;5046241;28;20186;-70
2022/10/03 00:21:18;;;;;;;23.42;5.57;;;;;;;;;;5048975;28;20185;-70
2022/10/03 00:23:57;;;;;;;23.58;5.00;;;;;;;;;;5041699;28;20844;-70
2022/10/03 00:26:38;;;;;;;20.95;4.65;;;;;;;;;;5035599;28;20177;-70
2022/10/03 00:29:24;;;;;;;21.40;4.43;;;;;;;;;;5047647;28;20235;-70
2022/10/03 00:32:21;;;;;;;16.17;3.80;;;;;;;;;;5036608;28;20212;-70
2022/10/03 00:34:50;;;;;;;17.23;4.25;;;;;;;;;;5030661;28;20217;-70
2022/10/03 00:37:34;;;;;;;22.52;4.05;;;;;;;;;;5033195;28;20327;-70
2022/10/03 00:40:29;;;;;;;21.27;4.13;;;;;;;;;;5040361;28;20255;-70
2022/10/03 00:43:30;;;;;;;14.05;3.47;;;;;;;;;;5044201;28;20275;-71
2022/10/03 00:46:20;;;;;;;16.40;3.55;;;;;;;;;;5043271;28;20257;-71
2022/10/03 00:49:13;;;;;;;20.25;4.75;;;;;;;;;;5030134;28;20667;-71
2022/10/03 00:52:03;;;;;;;15.20;4.05;;;;;;;;;;5029332;28;20555;-70
2022/10/03 00:54:36;;;;;;;16.55;4.00;;;;;;;;;;5032562;28;20206;-70
2022/10/03 00:57:08;;;;;;;23.85;3.67;;;;;;;;;;5040782;28;20169;-71
2022/10/03 00:59:52;;;;;;;20.40;4.07;;;;;;;;;;5037759;28;20520;-70
2022/10/03 01:02:38;;;;;;;20.60;4.68;;;;;;;;;;5032482;28;20189;-70
2022/10/03 01:05:30;;;;;;;16.42;3.80;;;;;;;;;;5028645;28;20217;-70
2022/10/03 01:08:25;;;;;;;20.40;4.20;;;;;;;;;;5040064;28;20189;-70
2022/10/03 01:11:14;;;;;;;20.35;4.90;;;;;;;;;;5032598;28;20237;-70
2022/10/03 01:14:07;;;;;;;18.70;3.78;;;;;;;;;;5031370;28;20218;-70
2022/10/03 01:17:04;;;;;;;16.38;3.60;;;;;;;;;;5047976;28;20260;-70
2022/10/03 01:19:45;;;;;;;20.88;3.92;;;;;;;;;;5031149;28;20284;-70
2022/10/03 01:22:48;;;;;;;20.70;3.65;;;;;;;;;;5030301;28;20197;-70
2022/10/03 01:25:40;;;;;;;14.15;3.53;;;;;;;;;;5040480;28;20187;-70
2022/10/03 01:31:16;;;;;;;12.25;3.00;;;;;;;;;;5040826;28;20239;-70
2022/10/03 01:33:51;;;;;;;26.65;3.47;;;;;;;;;;5031033;28;20247;-70
2022/10/03 01:36:48;;;;;;;22.52;3.75;;;;;;;;;;5036390;28;20591;-70
2022/10/03 01:39:41;;;;;;;15.68;3.17;;;;;;;;;;5041367;28;20243;-70
2022/10/03 01:42:19;;;;;;;15.13;3.25;;;;;;;;;;5030243;28;20208;-70
2022/10/03 01:45:01;;;;;;;20.38;4.20;;;;;;;;;;5030748;28;20221;-70
2022/10/03 01:47:38;;;;;;;16.77;3.45;;;;;;;;;;5038264;28;20186;-71
2022/10/03 01:50:27;;;;;;;19.50;4.10;;;;;;;;;;5031108;28;20186;-70
2022/10/03 01:53:05;;;;;;;17.63;3.65;;;;;;;;;;5031787;28;20268;-70
2022/10/03 01:55:55;;;;;;;20.35;3.63;;;;;;;;;;5032800;28;20433;-70
2022/10/03 01:58:45;;;;;;;14.75;3.28;;;;;;;;;;5033695;28;20735;-70
2022/10/03 02:01:48;;;;;;;18.80;3.67;;;;;;;;;;5033746;28;20186;-70
2022/10/03 02:04:30;;;;;;;18.60;3.67;;;;;;;;;;5028943;28;20505;-71
2022/10/03 02:07:10;;;;;;;17.42;3.55;;;;;;;;;;5039304;28;20192;-70
2022/10/03 02:10:23;;;;;;;18.23;3.60;;;;;;;;;;5045247;28;20703;-71
2022/10/03 02:13:21;;;;;;;15.43;3.55;;;;;;;;;;5018891;28;20285;-70
2022/10/03 02:16:00;;;;;;;28.67;4.68;;;;;;;;;;5037058;28;20592;-70
2022/10/03 02:18:34;;;;;;;14.48;3.47;;;;;;;;;;5028498;28;20185;-70
2022/10/03 02:21:19;;;;;;;18.45;3.38;;;;;;;;;;5034435;28;20185;-71
2022/10/03 02:23:47;;;;;;;14.50;3.10;;;;;;;;;;5039721;28;20239;-70
2022/10/03 02:26:47;;;;;;;20.38;3.38;;;;;;;;;;5038783;28;20222;-70
2022/10/03 02:29:37;;;;;;;14.20;3.67;;;;;;;;;;5033849;28;20563;-70
2022/10/03 02:32:40;;;;;;;20.83;3.97;;;;;;;;;;5033376;28;20212;-71
2022/10/03 02:35:20;;;;;;;20.65;4.72;;;;;;;;;;5032794;28;20213;-70
2022/10/03 02:38:08;;;;;;;14.50;4.10;;;;;;;;;;5039319;28;20288;-70
2022/10/03 02:40:49;;;;;;;16.67;4.28;;;;;;;;;;5045930;28;20243;-71
2022/10/03 02:43:41;;;;;;;11.13;3.07;;;;;;;;;;5040808;28;20185;-71
2022/10/03 02:46:42;;;;;;;11.63;3.15;;;;;;;;;;5038847;28;20231;-71
2022/10/03 02:49:26;;;;;;;12.10;3.42;;;;;;;;;;5043517;28;20667;-71
2022/10/03 02:52:04;;;;;;;15.25;3.20;;;;;;;;;;5041024;28;20198;-70
2022/10/03 02:54:35;;;;;;;12.80;3.20;;;;;;;;;;5039784;28;20442;-71
2022/10/03 02:57:35;;;;;;;16.13;3.15;;;;;;;;;;5037683;28;20640;-70
2022/10/03 03:00:29;;;;;;;15.75;3.25;;;;;;;;;;5046825;28;20193;-70
2022/10/03 03:03:10;;;;;;;15.90;3.38;;;;;;;;;;5033626;28;20197;-70
2022/10/03 03:06:13;;;;;;;18.88;3.85;;;;;;;;;;5037713;28;20572;-70
2022/10/03 03:09:26;;;;;;;14.70;3.67;;;;;;;;;;5036877;28;20217;-70
2022/10/03 03:12:33;;;;;;;17.00;3.78;;;;;;;;;;5031700;28;20256;-70
2022/10/03 03:15:24;;;;;;;19.37;3.57;;;;;;;;;;5041168;28;20557;-70
2022/10/03 03:18:08;;;;;;;14.43;3.57;;;;;;;;;;5037544;28;20201;-70
2022/10/03 03:20:52;;;;;;;14.83;3.03;;;;;;;;;;5038012;28;20206;-71
2022/10/03 03:23:43;;;;;;;15.73;4.77;;;;;;;;;;5038336;28;20181;-71
2022/10/03 03:26:11;;;;;;;20.13;3.60;;;;;;;;;;5032390;28;20182;-71
2022/10/03 03:29:04;;;;;;;20.43;3.80;;;;;;;;;;5039848;28;20226;-71
2022/10/03 03:32:01;;;;;;;18.90;4.47;;;;;;;;;;5038144;28;20220;-71
2022/10/03 03:34:42;;;;;;;12.77;3.63;;;;;;;;;;5042213;28;20244;-71
2022/10/03 03:37:19;;;;;;;23.57;4.00;;;;;;;;;;5032682;28;20629;-71
2022/10/03 03:40:10;;;;;;;16.30;3.75;;;;;;;;;;5036050;28;20181;-71
2022/10/03 03:42:59;;;;;;;19.70;3.97;;;;;;;;;;5036423;28;20288;-71
2022/10/03 03:45:59;;;;;;;17.45;4.00;;;;;;;;;;5044213;28;20177;-71
2022/10/03 03:48:43;;;;;;;17.52;3.83;;;;;;;;;;5038794;28;20201;-71
2022/10/03 03:51:25;;;;;;;21.00;4.32;;;;;;;;;;5043950;28;20189;-71
2022/10/03 03:54:29;;;;;;;12.17;3.40;;;;;;;;;;5029984;28;20198;-71
2022/10/03 03:57:08;;;;;;;13.20;3.50;;;;;;;;;;5043480;28;20192;-71
2022/10/03 03:59:56;;;;;;;14.47;3.90;;;;;;;;;;5035794;28;20243;-71
2022/10/03 04:02:54;;;;;;;19.40;4.17;;;;;;;;;;5035106;28;20193;-71
2022/10/03 04:05:57;;;;;;;14.73;4.67;;;;;;;;;;5042175;28;20235;-71
2022/10/03 04:08:51;;;;;;;21.93;4.50;;;;;;;;;;5046231;28;20185;-71
2022/10/03 04:11:31;;;;;;;12.60;3.70;;;;;;;;;;5045653;28;20277;-71
2022/10/03 04:14:15;;;;;;;18.97;4.10;;;;;;;;;;5038162;28;20193;-71
2022/10/03 04:19:47;;;;;;;22.67;4.17;;;;;;;;;;5036420;28;20699;-71
2022/10/03 04:22:35;;;;;;;15.93;4.60;;;;;;;;;;5036913;28;20429;-71
2022/10/03 04:25:25;;;;;;;19.20;4.30;;;;;;;;;;5033499;28;20652;-71
2022/10/03 04:28:02;;;;;;;24.53;4.63;;;;;;;;;;5033911;28;20190;-71
2022/10/03 04:30:55;;;;;;;20.27;4.27;;;;;;;;;;5030332;28;20226;-71
2022/10/03 04:33:35;;;;;;;15.60;4.00;;;;;;;;;;5041305;28;20201;-71
2022/10/03 04:36:22;;;;;;;16.98;4.30;;;;;;;;;;5040666;28;20205;-71
2022/10/03 04:39:21;;;;;;;12.70;4.47;;;;;;;;;;5045190;28;20204;-71
2022/10/03 04:41:56;;;;;;;12.30;3.80;;;;;;;;;;5037901;28;20181;-71
2022/10/03 04:44:42;;;;;;;21.10;4.85;;;;;;;;;;5036277;28;20184;-71
2022/10/03 04:47:17;;;;;;;24.73;4.72;;;;;;;;;;5037037;28;20657;-71
2022/10/03 04:50:01;;;;;;;13.00;3.92;;;;;;;;;;5037376;28;20226;-71
2022/10/03 04:52:32;;;;;;;18.88;4.60;;;;;;;;;;5038381;28;20793;-71
2022/10/03 04:55:35;;;;;;;17.33;3.95;;;;;;;;;;5030119;28;20324;-71
2022/10/03 04:58:23;;;;;;;17.48;4.10;;;;;;;;;;5029790;28;20230;-71
2022/10/03 05:01:14;;;;;;;15.75;3.88;;;;;;;;;;5041179;28;20733;-71
2022/10/03 05:04:01;;;;;;;16.53;4.23;;;;;;;;;;5033087;28;20271;-72
2022/10/03 05:06:59;;;;;;;13.18;4.30;;;;;;;;;;5031465;28;20210;-71
2022/10/03 05:09:52;;;;;;;13.88;3.97;;;;;;;;;;5034336;28;20182;-71
2022/10/03 05:12:21;;;;;;;16.42;4.43;;;;;;;;;;5036211;28;20182;-71
2022/10/03 05:15:17;;;;;;;18.88;3.97;;;;;;;;;;5031494;28;20639;-71
2022/10/03 05:17:45;;;;;;;14.57;3.77;;;;;;;;;;5031689;28;20186;-72
2022/10/03 05:20:36;;;;;;;12.93;3.53;;;;;;;;;;5035037;28;20185;-71
2022/10/03 05:23:22;;;;;;;14.30;3.43;;;;;;;;;;5030953;28;20184;-71
2022/10/03 05:26:10;;;;;;;9.23;3.53;;;;;;;;;;5029164;28;20182;-71
2022/10/03 05:28:39;;;;;;;14.17;3.40;;;;;;;;;;5030925;28;20189;-71
2022/10/03 05:31:31;;;;;;;15.65;3.85;;;;;;;;;;5035111;28;20307;-71
2022/10/03 05:34:15;;;;;;;9.23;3.50;;;;;;;;;;5036691;28;20193;-71
2022/10/03 05:37:03;;;;;;;16.50;3.88;;;;;;;;;;5032452;28;20190;-71
2022/10/03 05:40:05;;;;;;;17.23;4.47;;;;;;;;;;5017424;28;20189;-71
2022/10/03 05:43:00;;;;;;;16.23;3.50;;;;;;;;;;5043504;28;20191;-71
2022/10/03 05:45:38;;;;;;;22.87;4.50;;;;;;;;;;5032389;28;20267;-71
2022/10/03 05:48:43;;;;;;;11.83;3.90;;;;;;;;;;5037045;28;20641;-71
2022/10/03 05:51:23;;;;;;;14.70;4.73;;;;;;;;;;5033377;28;20269;-71
2022/10/03 05:53:57;;;;;;;14.10;3.97;;;;;;;;;;5033725;28;20186;-71
2022/10/03 05:57:00;;;;;;;16.27;4.83;;;;;;;;;;5032257;28;20206;-71
2022/10/03 05:59:47;;;;;;;17.17;4.73;;;;;;;;;;5037228;28;20220;-71
2022/10/03 06:02:50;;;;;;;18.97;5.03;;;;;;;;;;5032715;28;20230;-71
2022/10/03 06:05:48;;;;;;;25.43;5.77;;;;;;;;;;5032143;28;20185;-71
2022/10/03 06:08:42;;;;;;;14.13;4.55;;;;;;;;;;5032225;28;20267;-71
2022/10/03 06:11:45;;;;;;;20.15;5.35;;;;;;;;;;5042878;28;20551;-71
2022/10/03 06:14:16;;;;;;;20.90;5.80;;;;;;;;;;5040907;28;20513;-71
2022/10/03 06:17:09;;;;;;;22.35;5.00;;;;;;;;;;5030752;28;20209;-71
2022/10/03 06:20:10;;;;;;;14.07;4.53;;;;;;;;;;5040779;28;20185;-71
2022/10/03 06:22:59;;;;;;;13.07;5.40;;;;;;;;;;5030637;28;20178;-71
2022/10/03 06:26:02;;;;;;;12.10;4.37;;;;;;;;;;5041247;28;20235;-71
2022/10/03 06:28:58;;;;;;;17.87;5.37;;;;;;;;;;5035410;28;20212;-71
2022/10/03 06:31:49;;;;;;;19.73;4.97;;;;;;;;;;5015575;28;20214;-71
2022/10/03 06:34:23;;;;;;;17.25;5.18;;;;;;;;;;5016430;28;20181;-71
2022/10/03 06:37:28;;;;;;;17.70;5.32;;;;;;;;;;5016954;28;20251;-71
2022/10/03 06:40:24;;;;;;;20.50;5.45;;;;;;;;;;5013318;28;20191;-71
2022/10/03 06:43:20;;;;;;;17.83;5.80;;;;;;;;;;5017909;28;20187;-71
2022/10/03 06:46:24;;;;;;;22.17;5.38;;;;;;;;;;5010874;28;20175;-71
2022/10/03 06:49:17;;;;;;;26.15;5.45;;;;;;;;;;5017062;28;20265;-71
2022/10/03 06:52:00;;;;;;;17.63;5.95;;;;;;;;;;5020894;28;20184;-71
2022/10/03 06:55:03;;;;;;;19.65;5.93;;;;;;;;;;5024804;28;20250;-71
2022/10/03 06:57:34;;;;;;;26.63;6.28;;;;;;;;;;5014019;28;20594;-71
2022/10/03 07:00:42;;;;;;;20.75;6.40;;;;;;;;;;5013602;28;20265;-71
2022/10/03 07:03:25;;;;;;;19.13;6.35;;;;;;;;;;5011587;28;20282;-71
2022/10/03 07:05:59;;;;;;;23.38;6.03;;;;;;;;;;5013737;28;20201;-71
2022/10/03 07:08:45;;;;;;;29.42;6.78;;;;;;;;;;5016077;28;20256;-71
2022/10/03 07:11:27;;;;;;;26.80;6.65;;;;;;;;;;5014846;28;20265;-71
2022/10/03 07:14:20;;;;;;;19.63;6.53;;;;;;;;;;5015162;28;20596;-71
2022/10/03 07:16:45;;;;;;;21.05;5.88;;;;;;;;;;5014209;28;20564;-71
2022/10/03 07:19:14;;;;;;;17.67;5.78;;;;;;;;;;5010383;28;20197;-71
2022/10/03 07:22:07;;;;;;;18.15;5.72;;;;;;;;;;5014433;28;20539;-71
2022/10/03 07:24:51;;;;;;;19.90;5.65;;;;;;;;;;5011519;28;20194;-71
2022/10/03 07:27:44;;;;;;;18.05;5.60;;;;;;;;;;5015354;28;20616;-71
2022/10/03 07:30:15;;;;;;;17.95;6.07;;;;;;;;;;5026701;28;20213;-71
2022/10/03 07:33:18;;;;;;;24.85;6.80;;;;;;;;;;5034561;28;20235;-71
2022/10/03 07:39:46;;;;;;;20.60;5.57;;;;;;;;;;5037274;28;20259;-71
2022/10/03 07:42:24;;;;;;;18.60;5.82;;;;;;;;;;5031862;28;20221;-71
2022/10/03 07:45:39;;;;;;;23.15;5.53;;;;;;;;;;5028915;28;20272;-71
2022/10/03 07:48:29;;;;;;;19.73;5.68;;;;;;;;;;5011718;28;20212;-71
2022/10/03 07:51:09;;;;;;;23.70;6.18;;;;;;;;;;5034291;28;20170;-71
2022/10/03 07:53:47;;;;;;;23.85;6.00;;;;;;;;;;5036322;28;21398;-71
2022/10/03 07:56:26;;;;;;;17.40;5.30;;;;;;;;;;5035411;28;20255;-71
2022/10/03 07:59:19;;;;;;;20.45;5.85;;;;;;;;;;5038632;28;20658;-71
2022/10/03 08:02:15;;;;;;;20.83;5.40;;;;;;;;;;5032221;28;20236;-71
2022/10/03 08:04:57;;;;;;;16.17;4.95;;;;;;;;;;5036533;28;20557;-71
2022/10/03 08:07:28;;;;;;;17.33;4.85;;;;;;;;;;5035212;28;20186;-71
2022/10/03 08:10:11;;;;;;;15.18;4.85;;;;;;;;;;5031947;28;20190;-71
2022/10/03 08:13:08;;;;;;;13.13;4.15;;;;;;;;;;5032762;28;20181;-70
2022/10/03 08:16:18;;;;;;;14.45;3.92;;;;;;;;;;5030863;28;20599;-71
2022/10/03 08:18:50;;;;;;;16.15;4.50;;;;;;;;;;5032985;28;20194;-71
2022/10/03 08:21:29;;;;;;;14.73;4.45;;;;;;;;;;5032471;28;20639;-71
2022/10/03 08:24:13;;;;;;;24.88;3.92;;;;;;;;;;5038463;28;20272;-71
2022/10/03 08:27:01;;;;;;;14.43;3.90;;;;;;;;;;5036883;28;20313;-71
2022/10/03 08:29:43;;;;;;;18.08;3.40;;;;;;;;;;5030879;28;20229;-72
2022/10/03 08:32:47;;;;;;;15.70;3.53;;;;;;;;;;5033571;28;20699;-71
2022/10/03 08:35:23;;;;;;;16.52;3.35;;;;;;;;;;5037075;28;20572;-71
2022/10/03 08:38:04;;;;;;;16.33;3.28;;;;;;;;;;5040807;28;20201;-71
2022/10/03 08:40:38;;;;;;;17.70;2.80;;;;;;;;;;5035442;28;20178;-71
2022/10/03 08:43:41;;;;;;;12.68;3.30;;;;;;;;;;5027948;28;20186;-71
2022/10/03 08:46:25;;;;;;;11.82;3.22;;;;;;;;;;5045113;28;20173;-71
2022/10/03 08:49:22;;;;;;;14.57;2.80;;;;;;;;;;5035731;28;20189;-71
2022/10/03 08:52:11;;;;;;;19.50;2.72;;;;;;;;;;5032870;28;20178;-71
2022/10/03 08:55:15;;;;;;;15.32;3.08;;;;;;;;;;5038772;28;20217;-71
2022/10/03 08:58:10;;;;;;;13.07;2.30;;;;;;;;;;5036116;28;20185;-71
2022/10/03 09:01:22;;;;;;;11.38;2.33;;;;;;;;;;5032212;28;20198;-71
2022/10/03 09:04:28;;;;;;;16.02;2.53;;;;;;;;;;4997370;28;20270;-71
2022/10/03 09:07:03;;;;;;;7.97;1.92;;;;;;;;;;5031685;28;20577;-71
2022/10/03 09:09:54;;;;;;;9.77;1.95;;;;;;;;;;5035579;28;20182;-71
2022/10/03 09:13:09;;;;;;;13.75;2.00;;;;;;;;;;5042429;28;20360;-70
2022/10/03 09:16:02;;;;;;;11.23;2.00;;;;;;;;;;5031838;28;20221;-71
2022/10/03 09:18:57;;;;;;;15.40;2.03;;;;;;;;;;5030205;28;20618;-71
2022/10/03 09:21:59;;;;;;;9.95;2.80;;;;;;;;;;4991876;28;20191;-70
2022/10/03 09:25:05;;;;;;;9.45;1.70;;;;;;;;;;5035492;28;20178;-70
2022/10/03 09:27:57;;;;;;;14.02;1.77;;;;;;;;;;5037123;28;20774;-71
2022/10/03 09:30:40;;;;;;;10.93;1.40;;;;;;;;;;5031890;28;20245;-72
2022/10/03 09:33:21;;;;;;;9.00;1.45;;;;;;;;;;5029166;28;20214;-71
2022/10/03 09:36:27;;;;;;;8.68;1.20;;;;;;;;;;5036887;28;20201;-71
2022/10/03 09:38:59;;;;;;;12.95;1.88;;;;;;;;;;5031995;28;20185;-71
2022/10/03 09:41:57;;;;;;;7.63;1.02;;;;;;;;;;5028873;28;20174;-71
2022/10/03 09:45:00;;;;;;;9.82;1.42;;;;;;;;;;5006674;28;20197;-70
2022/10/03 09:47:50;;;;;;;8.98;1.50;;;;;;;;;;5031679;28;20174;-71
2022/10/03 09:51:08;;;;;;;9.20;1.20;;;;;;;;;;5033469;28;20189;-71
2022/10/03 09:54:15;;;;;;;9.13;1.58;;;;;;;;;;5024286;28;20217;-71
2022/10/03 09:57:11;;;;;;;8.32;1.30;;;;;;;;;;5034952;28;20215;-71
2022/10/03 09:59:58;;;;;;;8.35;0.93;;;;;;;;;;5037410;28;20181;-70
2022/10/03 10:02:45;;;;;;;6.10;0.93;;;;;;;;;;5028096;28;20220;-71
2022/10/03 10:05:50;;;;;;;8.95;1.27;;;;;;;;;;5038729;28;20219;-70
2022/10/03 10:08:41;;;;;;;9.63;1.10;;;;;;;;;;5032978;28;20275;-70
2022/10/03 10:11:46;;;;;;;10.60;1.25;;;;;;;;;;5030746;28;20177;-70
2022/10/03 10:14:56;;;;;;;6.95;1.10;;;;;;;;;;5033978;28;20229;-72
2022/10/03 10:17:51;;;;;;;7.55;0.90;;;;;;;;;;5028184;28;20185;-71
2022/10/03 10:20:42;;;;;;;7.60;1.30;;;;;;;;;;5016466;28;20201;-72
2022/10/03 10:23:39;;;;;;;7.10;1.10;;;;;;;;;;5035016;28;20198;-70
2022/10/03 10:26:19;;;;;;;6.78;0.80;;;;;;;;;;5033666;28;20182;-71
2022/10/03 10:29:10;;;;;;;7.60;1.08;;;;;;;;;;5035586;28;20201;-71
2022/10/03 10:32:00;;;;;;;9.60;1.45;;;;;;;;;;5030450;28;20256;-71
2022/10/03 10:34:50;;;;;;;9.60;1.67;;;;;;;;;;5029624;28;20510;-71
2022/10/03 10:37:43;;;;;;;10.52;1.23;;;;;;;;;;5031048;28;20521;-71
2022/10/03 10:40:46;;;;;;;4.57;0.90;;;;;;;;;;5034880;28;20186;-72
2022/10/03 10:43:43;;;;;;;10.32;1.60;;;;;;;;;;5033577;28;20182;-72
2022/10/03 10:46:38;;;;;;;10.95;1.42;;;;;;;;;;5033123;28;20526;-71
2022/10/03 10:49:49;;;;;;;7.60;1.20;;;;;;;;;;5033606;28;20203;-70
2022/10/03 10:52:33;;;;;;;4.80;0.85;;;;;;;;;;5030068;28;20491;-71
2022/10/03 10:55:36;;;;;;;7.30;1.10;;;;;;;;;;5036547;28;20243;-71
2022/10/03 10:58:13;;;;;;;6.45;0.98;;;;;;;;;;5044663;28;20182;-70
2022/10/03 11:01:00;;;;;;;8.15;1.40;;;;;;;;;;5032612;28;20186;-70
2022/10/03 11:03:51;;;;;;;6.93;1.17;;;;;;;;;;5032744;28;20182;-70
2022/10/03 11:06:28;;;;;;;6.45;1.20;;;;;;;;;;5039246;28;20197;-71
2022/10/03 11:09:17;;;;;;;7.03;1.23;;;;;;;;;;5031276;28;20174;-71
2022/10/03 11:12:26;;;;;;;6.53;1.17;;;;;;;;;;5049177;28;20193;-71
2022/10/03 11:15:10;;;;;;;9.90;1.27;;;;;;;;;;5037477;28;20241;-71
2022/10/03 11:18:02;;;;;;;13.38;1.52;;;;;;;;;;5034330;28;20204;-71
2022/10/03 11:20:58;;;;;;;9.57;1.10;;;;;;;;;;5036551;28;20656;-74
2022/10/03 11:24:07;;;;;;;9.38;1.08;;;;;;;;;;5046195;28;20256;-72
2022/10/03 11:27:06;;;;;;;8.35;1.60;;;;;;;;;;5045028;28;20224;-71
2022/10/03 11:29:49;;;;;;;7.00;1.10;;;;;;;;;;5050373;28;20308;-71
2022/10/03 11:32:33;;;;;;;7.70;1.42;;;;;;;;;;5035012;28;20201;-71
2022/10/03 11:35:16;;;;;;;9.02;1.65;;;;;;;;;;5032002;28;20313;-72
2022/10/03 11:38:06;;;;;;;6.95;1.65;;;;;;;;;;5050326;28;20197;-72
2022/10/03 11:40:59;;;;;;;8.75;1.40;;;;;;;;;;5029143;28;20179;-71
2022/10/03 11:44:23;;;;;;;7.60;1.30;;;;;;;;;;5043802;28;20185;-72
2022/10/03 11:46:57;;;;;;;8.35;1.45;;;;;;;;;;5034765;28;20208;-71
2022/10/03 11:49:25;;;;;;;11.95;1.95;;;;;;;;;;5032525;28;20444;-70
2022/10/03 11:51:58;;;;;;;6.90;1.27;;;;;;;;;;5049222;28;20272;-70
2022/10/03 11:54:29;;;;;;;7.00;1.13;;;;;;;;;;5035778;28;20235;-70
2022/10/03 11:57:08;;;;;;;5.25;1.20;;;;;;;;;;5050718;28;20645;-70
2022/10/03 11:59:53;;;;;;;7.50;1.50;;;;;;;;;;5033473;28;20193;-70
2022/10/03 12:02:43;;;;;;;7.20;1.42;;;;;;;;;;5034074;28;20198;-71
2022/10/03 12:05:26;;;;;;;8.02;1.70;;;;;;;;;;5034898;28;20300;-71
2022/10/03 12:11:17;;;;;;;8.60;1.30;;;;;;;;;;5038027;28;20193;-72
2022/10/03 12:14:14;;;;;;;6.55;1.38;;;;;;;;;;5030762;28;20190;-72
2022/10/03 12:16:39;;;;;;;9.13;1.10;;;;;;;;;;5039811;28;20206;-71
2022/10/03 12:19:39;;;;;;;7.20;1.88;;;;;;;;;;5040495;28;20193;-71
2022/10/03 12:22:18;;;;;;;6.72;1.10;;;;;;;;;;5029878;28;20254;-72
2022/10/03 12:24:46;;;;;;;8.48;1.33;;;;;;;;;;5034686;28;20213;-71
2022/10/03 12:27:39;;;;;;;6.75;1.15;;;;;;;;;;5030351;28;20182;-70
2022/10/03 12:30:13;;;;;;;8.25;1.40;;;;;;;;;;5029432;28;20268;-71
2022/10/03 12:33:00;;;;;;;6.28;1.30;;;;;;;;;;5030365;28;20213;-71
2022/10/03 12:35:32;;;;;;;3.90;1.10;;;;;;;;;;5032849;28;20255;-71
2022/10/03 12:38:32;;;;;;;4.78;1.20;;;;;;;;;;5029155;28;20597;-69
2022/10/03 12:41:10;;;;;;;3.17;0.75;;;;;;;;;;5022077;28;20198;-70
2022/10/03 12:43:50;;;;;;;6.10;1.35;;;;;;;;;;5032247;28;20646;-71
2022/10/03 12:46:50;;;;;;;6.45;1.10;;;;;;;;;;5033345;28;20658;-70
2022/10/03 12:49:26;;;;;;;5.35;0.95;;;;;;;;;;5034624;28;20185;-71
2022/10/03 12:52:05;;;;;;;7.75;1.17;;;;;;;;;;5031596;28;20200;-71
2022/10/03 12:54:48;;;;;;;5.70;0.90;;;;;;;;;;5028846;28;20212;-72
2022/10/03 12:57:48;;;;;;;5.63;1.10;;;;;;;;;;5033510;28;20181;-71
2022/10/03 13:00:19;;;;;;;5.47;0.98;;;;;;;;;;5015775;28;20841;-72
2022/10/03 13:03:24;;;;;;;10.40;1.25;;;;;;;;;;5032497;28;20181;-72
2022/10/03 13:06:19;;;;;;;4.70;1.10;;;;;;;;;;5033816;28;20188;-71
2022/10/03 13:09:06;;;;;;;6.47;1.10;;;;;;;;;;5026146;28;21147;-70
2022/10/03 13:11:57;;;;;;;9.55;1.58;;;;;;;;;;5030788;28;20196;-71
2022/10/03 13:14:26;;;;;;;4.65;0.80;;;;;;;;;;5032867;28;20777;-71
2022/10/03 13:17:10;;;;;;;6.50;1.00;;;;;;;;;;5040134;28;20307;-71
2022/10/03 13:19:46;;;;;;;7.15;0.93;;;;;;;;;;5033430;28;20201;-72
2022/10/03 13:22:24;;;;;;;5.63;1.17;;;;;;;;;;5038642;28;20203;-71
2022/10/03 13:25:14;;;;;;;4.60;0.88;;;;;;;;;;5033711;28;20182;-71
2022/10/03 13:27:49;;;;;;;7.72;1.30;;;;;;;;;;5036455;28;20331;-71
2022/10/03 13:30:23;;;;;;;5.88;1.10;;;;;;;;;;5037113;28;20221;-71
2022/10/03 13:32:55;;;;;;;4.60;1.23;;;;;;;;;;5041475;28;20205;-72
2022/10/03 13:38:17;;;;;;;6.18;1.00;;;;;;;;;;5030399;28;20247;-71
2022/10/03 13:40:50;;;;;;;6.18;1.00;;;;;;;;;;5034643;28;20196;-70
2022/10/03 13:43:24;;;;;;;4.03;0.80;;;;;;;;;;5038873;28;20220;-70
2022/10/03 13:45:55;;;;;;;4.70;0.80;;;;;;;;;;5042960;28;20253;-70
2022/10/03 13:48:26;;;;;;;9.25;1.30;;;;;;;;;;5037040;28;20259;-71
2022/10/03 13:51:20;;;;;;;6.97;0.90;;;;;;;;;;5035695;28;20401;-72
2022/10/03 13:54:05;;;;;;;7.22;1.40;;;;;;;;;;5035063;28;20300;-72
2022/10/03 13:56:39;;;;;;;7.05;1.35;;;;;;;;;;5031528;28;20213;-71
2022/10/03 13:59:16;;;;;;;10.32;1.15;;;;;;;;;;5037871;28;20956;-71
2022/10/03 14:01:42;;;;;;;8.80;1.33;;;;;;;;;;5037451;28;20180;-71
2022/10/03 14:04:17;;;;;;;4.55;1.00;;;;;;;;;;5039476;28;20189;-71
2022/10/03 14:06:58;;;;;;;5.38;0.88;;;;;;;;;;5039432;28;20192;-71
2022/10/03 14:09:42;;;;;;;4.45;1.13;;;;;;;;;;5044426;28;20196;-71
2022/10/03 14:12:16;;;;;;;5.47;0.80;;;;;;;;;;5040227;28;20233;-71
2022/10/03 14:15:13;;;;;;;4.00;0.90;;;;;;;;;;5045828;28;20238;-71
2022/10/03 14:17:53;;;;;;;4.00;0.95;;;;;;;;;;5039152;28;20696;-71
2022/10/03 14:20:30;;;;;;;6.03;1.20;;;;;;;;;;5038257;28;20667;-71
2022/10/03 14:23:12;;;;;;;5.72;1.00;;;;;;;;;;5039156;28;20181;-71
2022/10/03 14:25:46;;;;;;;8.00;1.13;;;;;;;;;;5038517;28;20178;-71
2022/10/03 14:28:25;;;;;;;6.10;0.88;;;;;;;;;;5033596;28;20182;-71
2022/10/03 14:31:35;;;;;;;8.57;1.10;;;;;;;;;;5031411;28;20240;-72
2022/10/03 14:34:24;;;;;;;7.60;1.60;;;;;;;;;;5031738;28;20627;-70
2022/10/03 14:37:13;;;;;;;4.35;1.08;;;;;;;;;;5035330;28;20188;-70
2022/10/03 14:39:47;;;;;;;8.30;1.13;;;;;;;;;;5037931;28;20174;-71
2022/10/03 14:42:42;;;;;;;5.95;1.50;;;;;;;;;;5034474;28;20190;-70
2022/10/03 14:45:12;;;;;;;6.43;1.02;;;;;;;;;;5044057;28;20180;-71
2022/10/03 14:47:40;;;;;;;5.63;1.25;;;;;;;;;;5032568;28;20538;-70
2022/10/03 14:50:13;;;;;;;7.57;1.00;;;;;;;;;;5038071;28;20185;-70
2022/10/03 14:52:48;;;;;;;6.03;1.30;;;;;;;;;;5036521;28;20189;-70
2022/10/03 14:55:18;;;;;;;3.67;1.10;;;;;;;;;;5032368;28;20223;-70
2022/10/03 14:57:51;;;;;;;3.50;1.13;;;;;;;;;;5038684;28;20186;-71
2022/10/03 15:00:26;;;;;;;5.22;1.30;;;;;;;;;;5036588;28;20312;-70
2022/10/03 15:02:52;;;;;;;7.80;0.82;;;;;;;;;;5044763;28;20259;-71
2022/10/03 15:05:32;;;;;;;5.80;1.23;;;;;;;;;;5045668;28;20201;-71
2022/10/03 15:07:58;;;;;;;5.90;1.50;;;;;;;;;;5048043;28;20185;-70
2022/10/03 15:10:26;;;;;;;6.97;1.70;;;;;;;;;;5033755;28;20205;-70
2022/10/03 15:13:04;;;;;;;8.95;1.30;;;;;;;;;;5033198;28;20221;-71
2022/10/03 15:15:34;;;;;;;5.00;1.23;;;;;;;;;;5038309;28;20205;-71
2022/10/03 15:18:02;;;;;;;5.07;1.17;;;;;;;;;;5040945;28;20661;-72
2022/10/03 15:20:35;;;;;;;5.75;1.00;;;;;;;;;;5046367;28;20189;-71
2022/10/03 15:23:05;;;;;;;4.85;0.82;;;;;;;;;;5033051;28;20189;-71
2022/10/03 15:25:38;;;;;;;10.07;1.55;;;;;;;;;;5030040;28;20529;-71
2022/10/03 15:28:07;;;;;;;5.38;1.30;;;;;;;;;;5033328;28;20208;-71
2022/10/03 15:30:35;;;;;;;4.85;1.23;;;;;;;;;;5032707;28;20307;-71
2022/10/03 15:33:19;;;;;;;6.47;1.30;;;;;;;;;;5031343;28;20214;-71
2022/10/03 15:35:49;;;;;;;5.57;1.58;;;;;;;;;;5034043;28;20566;-71
2022/10/03 15:38:32;;;;;;;7.80;1.27;;;;;;;;;;5032839;28;20182;-69
2022/10/03 15:41:20;;;;;;;6.07;1.30;;;;;;;;;;5036577;28;20216;-70
2022/10/03 15:44:01;;;;;;;6.70;1.40;;;;;;;;;;5031063;28;20176;-70
2022/10/03 15:46:30;;;;;;;12.55;1.45;;;;;;;;;;5034620;28;20178;-70
2022/10/03 15:49:01;;;;;;;4.80;1.60;;;;;;;;;;5035904;28;20265;-70
2022/10/03 15:51:29;;;;;;;5.85;1.40;;;;;;;;;;5036441;28;20192;-69
2022/10/03 15:53:57;;;;;;;8.63;1.45;;;;;;;;;;5030188;28;20182;-69
2022/10/03 15:56:28;;;;;;;6.03;1.23;;;;;;;;;;5032061;28;20633;-70
2022/10/03 15:58:59;;;;;;;10.50;1.70;;;;;;;;;;5030566;28;20294;-70
2022/10/03 16:01:30;;;;;;;6.95;1.50;;;;;;;;;;5031041;28;20311;-70
2022/10/03 16:04:00;;;;;;;6.97;1.40;;;;;;;;;;5029553;28;20269;-70
2022/10/03 16:06:38;;;;;;;9.10;1.48;;;;;;;;;;5035183;28;20188;-70
2022/10/03 16:09:21;;;;;;;6.20;1.30;;;;;;;;;;5031461;28;20178;-70
2022/10/03 16:12:11;;;;;;;8.43;2.05;;;;;;;;;;5034398;28;20213;-70
2022/10/03 16:15:09;;;;;;;6.65;1.42;;;;;;;;;;5030599;28;20253;-70
2022/10/03 16:17:49;;;;;;;13.13;1.95;;;;;;;;;;5005036;28;20326;-70
2022/10/03 16:20:34;;;;;;;5.47;1.70;;;;;;;;;;5038744;28;20284;-70
2022/10/03 16:23:22;;;;;;;7.55;1.45;;;;;;;;;;5028497;28;20217;-71
2022/10/03 16:26:02;;;;;;;6.82;1.38;;;;;;;;;;5034426;28;20173;-71
2022/10/03 16:28:33;;;;;;;6.95;1.50;;;;;;;;;;5035387;28;20178;-71
2022/10/03 16:31:19;;;;;;;6.30;1.45;;;;;;;;;;5035552;28;20251;-71
2022/10/03 16:33:50;;;;;;;11.18;1.60;;;;;;;;;;5032781;28;20251;-71
2022/10/03 16:36:18;;;;;;;6.47;1.73;;;;;;;;;;5036384;28;20214;-71
2022/10/03 16:38:50;;;;;;;5.88;1.67;;;;;;;;;;5035268;28;20190;-70
2022/10/03 16:41:25;;;;;;;8.23;1.50;;;;;;;;;;5034486;28;20657;-71
2022/10/03 16:44:00;;;;;;;7.47;1.70;;;;;;;;;;5040617;28;20177;-70